sensor_id;sensor_type;location;lat;lon;timestamp;P1;durP1;ratioP1;P2;durP2;ratioP2
7833;SDS011;3962;42.696;23.354;2023-02-22T00:02:26;25.97;;;12.87;;
7833;SDS011;3962;42.696;23.354;2023-02-22T00:05:00;25.63;;;13.70;;
7833;SDS011;3962;42.696;23.354;2023-02-22T00:07:28;21.93;;;12.00;;
7833;SDS011;3962;42.696;23.354;2023-02-22T00:09:55;23.20;;;11.97;;
7833;SDS011;3962;42.696;23.354;2023-02-22T00:12:24;23.20;;;11.93;;
7833;SDS011;3962;42.696;23.354;2023-02-22T00:14:56;25.57;;;12.67;;
7833;SDS011;3962;42.696;23.354;2023-02-22T00:17:23;20.97;;;11.77;;
7833;SDS011;3962;42.696;23.354;2023-02-22T00:19:56;35.13;;;16.43;;
7833;SDS011;3962;42.696;23.354;2023-02-22T00:22:24;25.77;;;12.87;;
7833;SDS011;3962;42.696;23.354;2023-02-22T00:24:51;23.30;;;13.07;;
7833;SDS011;3962;42.696;23.354;2023-02-22T00:27:19;20.63;;;11.23;;
7833;SDS011;3962;42.696;23.354;2023-02-22T00:32:17;19.33;;;10.23;;
7833;SDS011;3962;42.696;23.354;2023-02-22T00:34:44;19.63;;;10.53;;
7833;SDS011;3962;42.696;23.354;2023-02-22T00:37:14;20.07;;;10.77;;
7833;SDS011;3962;42.696;23.354;2023-02-22T00:44:50;30.77;;;15.60;;
7833;SDS011;3962;42.696;23.354;2023-02-22T00:47:24;22.87;;;13.17;;
7833;SDS011;3962;42.696;23.354;2023-02-22T00:52:27;34.83;;;14.13;;
7833;SDS011;3962;42.696;23.354;2023-02-22T00:55:14;29.33;;;13.20;;
7833;SDS011;3962;42.696;23.354;2023-02-22T01:00:22;29.73;;;15.93;;
7833;SDS011;3962;42.696;23.354;2023-02-22T01:02:51;28.43;;;15.40;;
7833;SDS011;3962;42.696;23.354;2023-02-22T01:05:20;25.80;;;15.07;;
7833;SDS011;3962;42.696;23.354;2023-02-22T01:07:58;24.73;;;13.27;;
7833;SDS011;3962;42.696;23.354;2023-02-22T01:10:28;35.30;;;14.87;;
7833;SDS011;3962;42.696;23.354;2023-02-22T01:12:56;31.20;;;14.03;;
7833;SDS011;3962;42.696;23.354;2023-02-22T01:15:24;21.80;;;11.47;;
7833;SDS011;3962;42.696;23.354;2023-02-22T01:17:57;26.47;;;13.47;;
7833;SDS011;3962;42.696;23.354;2023-02-22T01:20:28;32.20;;;14.87;;
7833;SDS011;3962;42.696;23.354;2023-02-22T01:22:57;33.20;;;15.57;;
7833;SDS011;3962;42.696;23.354;2023-02-22T01:25:28;33.17;;;16.53;;
7833;SDS011;3962;42.696;23.354;2023-02-22T01:27:57;30.17;;;16.80;;
7833;SDS011;3962;42.696;23.354;2023-02-22T01:32:59;34.53;;;17.40;;
7833;SDS011;3962;42.696;23.354;2023-02-22T01:38:01;43.30;;;22.67;;
7833;SDS011;3962;42.696;23.354;2023-02-22T01:43:16;51.60;;;23.30;;
7833;SDS011;3962;42.696;23.354;2023-02-22T01:45:47;53.00;;;25.67;;
7833;SDS011;3962;42.696;23.354;2023-02-22T01:48:19;46.43;;;23.73;;
7833;SDS011;3962;42.696;23.354;2023-02-22T01:56:38;56.73;;;26.63;;
7833;SDS011;3962;42.696;23.354;2023-02-22T01:59:12;49.80;;;23.97;;
7833;SDS011;3962;42.696;23.354;2023-02-22T02:04:36;48.50;;;24.20;;
7833;SDS011;3962;42.696;23.354;2023-02-22T02:07:17;57.60;;;26.73;;
7833;SDS011;3962;42.696;23.354;2023-02-22T02:12:20;52.00;;;25.57;;
7833;SDS011;3962;42.696;23.354;2023-02-22T02:14:52;54.73;;;25.33;;
7833;SDS011;3962;42.696;23.354;2023-02-22T02:19:54;54.87;;;24.77;;
7833;SDS011;3962;42.696;23.354;2023-02-22T02:22:35;48.07;;;22.80;;
7833;SDS011;3962;42.696;23.354;2023-02-22T02:28:42;56.23;;;27.07;;
7833;SDS011;3962;42.696;23.354;2023-02-22T02:34:30;64.40;;;35.53;;
7833;SDS011;3962;42.696;23.354;2023-02-22T02:37:02;50.50;;;29.53;;
7833;SDS011;3962;42.696;23.354;2023-02-22T02:39:42;38.43;;;20.50;;
7833;SDS011;3962;42.696;23.354;2023-02-22T02:44:59;28.77;;;15.07;;
7833;SDS011;3962;42.696;23.354;2023-02-22T02:47:31;29.10;;;14.50;;
7833;SDS011;3962;42.696;23.354;2023-02-22T02:50:06;30.97;;;14.83;;
7833;SDS011;3962;42.696;23.354;2023-02-22T02:52:40;28.17;;;14.93;;
7833;SDS011;3962;42.696;23.354;2023-02-22T02:55:08;27.43;;;14.90;;
7833;SDS011;3962;42.696;23.354;2023-02-22T02:57:36;27.07;;;15.30;;
7833;SDS011;3962;42.696;23.354;2023-02-22T03:00:04;26.43;;;14.33;;
7833;SDS011;3962;42.696;23.354;2023-02-22T03:02:55;27.33;;;15.40;;
7833;SDS011;3962;42.696;23.354;2023-02-22T03:05:39;29.77;;;14.13;;
7833;SDS011;3962;42.696;23.354;2023-02-22T03:08:19;28.07;;;14.50;;
7833;SDS011;3962;42.696;23.354;2023-02-22T03:10:54;26.90;;;13.70;;
7833;SDS011;3962;42.696;23.354;2023-02-22T03:13:38;27.63;;;13.73;;
7833;SDS011;3962;42.696;23.354;2023-02-22T03:16:11;26.00;;;14.10;;
7833;SDS011;3962;42.696;23.354;2023-02-22T03:18:58;29.70;;;14.27;;
7833;SDS011;3962;42.696;23.354;2023-02-22T03:21:40;30.93;;;14.63;;
7833;SDS011;3962;42.696;23.354;2023-02-22T03:24:19;32.73;;;15.17;;
7833;SDS011;3962;42.696;23.354;2023-02-22T03:29:33;31.77;;;16.83;;
7833;SDS011;3962;42.696;23.354;2023-02-22T03:34:48;38.10;;;16.27;;
7833;SDS011;3962;42.696;23.354;2023-02-22T03:37:25;38.43;;;16.60;;
7833;SDS011;3962;42.696;23.354;2023-02-22T03:40:02;34.77;;;18.17;;
7833;SDS011;3962;42.696;23.354;2023-02-22T03:42:42;41.40;;;18.53;;
7833;SDS011;3962;42.696;23.354;2023-02-22T03:45:24;52.53;;;20.10;;
7833;SDS011;3962;42.696;23.354;2023-02-22T03:47:56;49.70;;;19.80;;
7833;SDS011;3962;42.696;23.354;2023-02-22T03:54:02;49.30;;;18.87;;
7833;SDS011;3962;42.696;23.354;2023-02-22T03:56:40;46.23;;;19.23;;
7833;SDS011;3962;42.696;23.354;2023-02-22T04:01:51;34.33;;;17.50;;
7833;SDS011;3962;42.696;23.354;2023-02-22T04:04:23;31.83;;;16.10;;
7833;SDS011;3962;42.696;23.354;2023-02-22T04:06:51;38.97;;;19.47;;
7833;SDS011;3962;42.696;23.354;2023-02-22T04:09:21;38.43;;;18.20;;
7833;SDS011;3962;42.696;23.354;2023-02-22T04:11:47;38.60;;;17.97;;
7833;SDS011;3962;42.696;23.354;2023-02-22T04:14:15;32.83;;;16.33;;
7833;SDS011;3962;42.696;23.354;2023-02-22T04:16:43;29.23;;;15.77;;
7833;SDS011;3962;42.696;23.354;2023-02-22T04:21:50;38.20;;;18.97;;
7833;SDS011;3962;42.696;23.354;2023-02-22T04:24:18;45.33;;;19.67;;
7833;SDS011;3962;42.696;23.354;2023-02-22T04:26:46;42.43;;;19.43;;
7833;SDS011;3962;42.696;23.354;2023-02-22T04:29:14;45.67;;;22.90;;
7833;SDS011;3962;42.696;23.354;2023-02-22T04:31:40;79.73;;;37.97;;
7833;SDS011;3962;42.696;23.354;2023-02-22T04:34:12;45.80;;;20.97;;
7833;SDS011;3962;42.696;23.354;2023-02-22T04:39:09;26.63;;;13.23;;
7833;SDS011;3962;42.696;23.354;2023-02-22T04:41:36;20.57;;;10.87;;
7833;SDS011;3962;42.696;23.354;2023-02-22T04:44:05;51.97;;;20.73;;
7833;SDS011;3962;42.696;23.354;2023-02-22T04:46:41;42.77;;;19.67;;
7833;SDS011;3962;42.696;23.354;2023-02-22T04:49:07;37.43;;;19.90;;
7833;SDS011;3962;42.696;23.354;2023-02-22T04:56:52;51.67;;;24.40;;
7833;SDS011;3962;42.696;23.354;2023-02-22T05:01:57;53.83;;;24.40;;
7833;SDS011;3962;42.696;23.354;2023-02-22T05:04:24;57.67;;;24.67;;
7833;SDS011;3962;42.696;23.354;2023-02-22T05:06:52;55.83;;;24.13;;
7833;SDS011;3962;42.696;23.354;2023-02-22T05:09:18;40.33;;;20.30;;
7833;SDS011;3962;42.696;23.354;2023-02-22T05:11:45;50.57;;;23.17;;
7833;SDS011;3962;42.696;23.354;2023-02-22T05:14:12;60.97;;;23.50;;
7833;SDS011;3962;42.696;23.354;2023-02-22T05:16:40;66.07;;;27.07;;
7833;SDS011;3962;42.696;23.354;2023-02-22T05:19:07;52.70;;;23.97;;
7833;SDS011;3962;42.696;23.354;2023-02-22T05:21:34;42.07;;;21.57;;
7833;SDS011;3962;42.696;23.354;2023-02-22T05:24:01;45.30;;;21.80;;
7833;SDS011;3962;42.696;23.354;2023-02-22T05:26:28;38.17;;;18.63;;
7833;SDS011;3962;42.696;23.354;2023-02-22T05:28:55;42.87;;;20.70;;
7833;SDS011;3962;42.696;23.354;2023-02-22T05:31:22;39.53;;;19.77;;
7833;SDS011;3962;42.696;23.354;2023-02-22T05:33:50;37.57;;;17.97;;
7833;SDS011;3962;42.696;23.354;2023-02-22T05:36:17;35.67;;;16.60;;
7833;SDS011;3962;42.696;23.354;2023-02-22T05:38:44;38.87;;;17.50;;
7833;SDS011;3962;42.696;23.354;2023-02-22T05:41:12;49.20;;;21.27;;
7833;SDS011;3962;42.696;23.354;2023-02-22T05:43:39;54.47;;;25.97;;
7833;SDS011;3962;42.696;23.354;2023-02-22T05:46:06;57.90;;;26.03;;
7833;SDS011;3962;42.696;23.354;2023-02-22T05:48:33;55.87;;;22.97;;
7833;SDS011;3962;42.696;23.354;2023-02-22T05:51:02;43.33;;;21.20;;
7833;SDS011;3962;42.696;23.354;2023-02-22T05:53:29;50.03;;;19.97;;
7833;SDS011;3962;42.696;23.354;2023-02-22T05:55:56;69.27;;;26.27;;
7833;SDS011;3962;42.696;23.354;2023-02-22T05:58:23;71.80;;;26.37;;
7833;SDS011;3962;42.696;23.354;2023-02-22T06:00:50;63.67;;;25.10;;
7833;SDS011;3962;42.696;23.354;2023-02-22T06:03:17;56.07;;;24.83;;
7833;SDS011;3962;42.696;23.354;2023-02-22T06:05:44;68.07;;;29.47;;
7833;SDS011;3962;42.696;23.354;2023-02-22T06:08:12;65.13;;;29.67;;
7833;SDS011;3962;42.696;23.354;2023-02-22T06:10:40;63.23;;;28.27;;
7833;SDS011;3962;42.696;23.354;2023-02-22T06:13:07;40.47;;;19.87;;
7833;SDS011;3962;42.696;23.354;2023-02-22T06:15:34;40.40;;;17.60;;
7833;SDS011;3962;42.696;23.354;2023-02-22T06:18:01;29.83;;;16.27;;
7833;SDS011;3962;42.696;23.354;2023-02-22T06:20:28;34.80;;;15.90;;
7833;SDS011;3962;42.696;23.354;2023-02-22T06:22:57;33.17;;;15.23;;
7833;SDS011;3962;42.696;23.354;2023-02-22T06:25:26;31.03;;;14.13;;
7833;SDS011;3962;42.696;23.354;2023-02-22T06:27:55;35.83;;;13.90;;
7833;SDS011;3962;42.696;23.354;2023-02-22T06:30:23;31.17;;;14.73;;
7833;SDS011;3962;42.696;23.354;2023-02-22T06:32:51;25.57;;;13.50;;
7833;SDS011;3962;42.696;23.354;2023-02-22T06:35:18;24.73;;;12.70;;
7833;SDS011;3962;42.696;23.354;2023-02-22T06:37:45;27.07;;;13.03;;
7833;SDS011;3962;42.696;23.354;2023-02-22T06:40:12;25.63;;;11.60;;
7833;SDS011;3962;42.696;23.354;2023-02-22T06:42:41;20.00;;;12.30;;
7833;SDS011;3962;42.696;23.354;2023-02-22T06:45:08;22.90;;;10.80;;
7833;SDS011;3962;42.696;23.354;2023-02-22T06:47:39;26.60;;;11.40;;
7833;SDS011;3962;42.696;23.354;2023-02-22T06:50:07;35.57;;;15.87;;
7833;SDS011;3962;42.696;23.354;2023-02-22T06:52:42;52.07;;;20.40;;
7833;SDS011;3962;42.696;23.354;2023-02-22T06:55:09;44.90;;;24.40;;
7833;SDS011;3962;42.696;23.354;2023-02-22T06:57:36;53.97;;;27.20;;
7833;SDS011;3962;42.696;23.354;2023-02-22T07:00:06;67.37;;;29.30;;
7833;SDS011;3962;42.696;23.354;2023-02-22T07:02:34;72.03;;;31.53;;
7833;SDS011;3962;42.696;23.354;2023-02-22T07:05:01;73.03;;;32.80;;
7833;SDS011;3962;42.696;23.354;2023-02-22T07:07:28;68.90;;;32.23;;
7833;SDS011;3962;42.696;23.354;2023-02-22T07:09:56;82.10;;;35.30;;
7833;SDS011;3962;42.696;23.354;2023-02-22T07:12:23;80.80;;;34.57;;
7833;SDS011;3962;42.696;23.354;2023-02-22T07:14:53;86.43;;;33.63;;
7833;SDS011;3962;42.696;23.354;2023-02-22T07:17:21;66.70;;;32.17;;
7833;SDS011;3962;42.696;23.354;2023-02-22T07:19:48;63.53;;;30.13;;
7833;SDS011;3962;42.696;23.354;2023-02-22T07:22:15;59.57;;;27.63;;
7833;SDS011;3962;42.696;23.354;2023-02-22T07:24:42;64.13;;;27.93;;
7833;SDS011;3962;42.696;23.354;2023-02-22T07:27:09;57.97;;;27.80;;
7833;SDS011;3962;42.696;23.354;2023-02-22T07:29:36;53.63;;;28.40;;
7833;SDS011;3962;42.696;23.354;2023-02-22T07:32:03;59.23;;;28.73;;
7833;SDS011;3962;42.696;23.354;2023-02-22T07:34:32;65.80;;;28.00;;
7833;SDS011;3962;42.696;23.354;2023-02-22T07:36:59;53.77;;;27.10;;
7833;SDS011;3962;42.696;23.354;2023-02-22T07:39:26;57.93;;;30.60;;
7833;SDS011;3962;42.696;23.354;2023-02-22T07:41:53;54.47;;;29.37;;
7833;SDS011;3962;42.696;23.354;2023-02-22T07:44:20;49.13;;;26.93;;
7833;SDS011;3962;42.696;23.354;2023-02-22T07:46:47;56.47;;;26.87;;
7833;SDS011;3962;42.696;23.354;2023-02-22T07:49:14;49.67;;;27.57;;
7833;SDS011;3962;42.696;23.354;2023-02-22T07:51:43;48.87;;;24.50;;
7833;SDS011;3962;42.696;23.354;2023-02-22T07:54:09;46.63;;;26.57;;
7833;SDS011;3962;42.696;23.354;2023-02-22T07:56:36;49.77;;;26.57;;
7833;SDS011;3962;42.696;23.354;2023-02-22T07:59:09;50.90;;;26.97;;
7833;SDS011;3962;42.696;23.354;2023-02-22T08:01:35;51.67;;;26.03;;
7833;SDS011;3962;42.696;23.354;2023-02-22T08:04:02;47.87;;;27.23;;
7833;SDS011;3962;42.696;23.354;2023-02-22T08:06:29;43.00;;;24.67;;
7833;SDS011;3962;42.696;23.354;2023-02-22T08:08:59;45.07;;;24.23;;
7833;SDS011;3962;42.696;23.354;2023-02-22T08:11:26;50.50;;;24.33;;
7833;SDS011;3962;42.696;23.354;2023-02-22T08:13:53;42.03;;;20.87;;
7833;SDS011;3962;42.696;23.354;2023-02-22T08:16:19;44.73;;;21.73;;
7833;SDS011;3962;42.696;23.354;2023-02-22T08:18:46;51.67;;;22.63;;
7833;SDS011;3962;42.696;23.354;2023-02-22T08:21:14;38.20;;;22.57;;
7833;SDS011;3962;42.696;23.354;2023-02-22T08:23:41;49.63;;;23.47;;
7833;SDS011;3962;42.696;23.354;2023-02-22T08:26:10;43.53;;;24.07;;
7833;SDS011;3962;42.696;23.354;2023-02-22T08:28:41;45.33;;;22.73;;
7833;SDS011;3962;42.696;23.354;2023-02-22T08:31:08;47.27;;;22.40;;
7833;SDS011;3962;42.696;23.354;2023-02-22T08:33:35;46.87;;;22.13;;
7833;SDS011;3962;42.696;23.354;2023-02-22T08:36:02;45.77;;;21.80;;
7833;SDS011;3962;42.696;23.354;2023-02-22T08:38:29;33.53;;;18.03;;
7833;SDS011;3962;42.696;23.354;2023-02-22T08:40:58;30.60;;;17.73;;
7833;SDS011;3962;42.696;23.354;2023-02-22T08:43:26;33.60;;;18.83;;
7833;SDS011;3962;42.696;23.354;2023-02-22T08:45:53;35.47;;;18.27;;
7833;SDS011;3962;42.696;23.354;2023-02-22T08:48:20;31.83;;;16.30;;
7833;SDS011;3962;42.696;23.354;2023-02-22T08:50:47;29.55;;;16.95;;
7833;SDS011;3962;42.696;23.354;2023-02-22T08:53:14;25.97;;;15.60;;
7833;SDS011;3962;42.696;23.354;2023-02-22T08:55:42;23.80;;;14.00;;
7833;SDS011;3962;42.696;23.354;2023-02-22T08:58:09;24.63;;;14.23;;
7833;SDS011;3962;42.696;23.354;2023-02-22T09:00:39;32.07;;;14.07;;
7833;SDS011;3962;42.696;23.354;2023-02-22T09:03:09;26.23;;;15.03;;
7833;SDS011;3962;42.696;23.354;2023-02-22T09:05:38;27.40;;;13.93;;
7833;SDS011;3962;42.696;23.354;2023-02-22T09:08:05;26.80;;;13.07;;
7833;SDS011;3962;42.696;23.354;2023-02-22T09:10:33;27.03;;;11.93;;
7833;SDS011;3962;42.696;23.354;2023-02-22T09:13:00;27.03;;;11.13;;
7833;SDS011;3962;42.696;23.354;2023-02-22T09:15:28;21.10;;;9.50;;
7833;SDS011;3962;42.696;23.354;2023-02-22T09:17:57;18.00;;;9.57;;
7833;SDS011;3962;42.696;23.354;2023-02-22T09:20:24;19.63;;;9.93;;
7833;SDS011;3962;42.696;23.354;2023-02-22T09:22:52;23.03;;;9.77;;
7833;SDS011;3962;42.696;23.354;2023-02-22T09:25:19;20.33;;;9.07;;
7833;SDS011;3962;42.696;23.354;2023-02-22T09:27:48;16.73;;;8.70;;
7833;SDS011;3962;42.696;23.354;2023-02-22T09:30:16;13.30;;;7.37;;
7833;SDS011;3962;42.696;23.354;2023-02-22T09:32:48;14.73;;;7.50;;
7833;SDS011;3962;42.696;23.354;2023-02-22T09:35:17;17.17;;;7.10;;
7833;SDS011;3962;42.696;23.354;2023-02-22T09:37:44;14.27;;;7.07;;
7833;SDS011;3962;42.696;23.354;2023-02-22T09:40:15;12.30;;;6.33;;
7833;SDS011;3962;42.696;23.354;2023-02-22T09:42:52;10.80;;;5.83;;
7833;SDS011;3962;42.696;23.354;2023-02-22T09:45:28;10.03;;;5.57;;
7833;SDS011;3962;42.696;23.354;2023-02-22T09:48:01;6.60;;;4.37;;
7833;SDS011;3962;42.696;23.354;2023-02-22T09:50:34;8.80;;;4.60;;
7833;SDS011;3962;42.696;23.354;2023-02-22T09:53:09;8.93;;;5.07;;
7833;SDS011;3962;42.696;23.354;2023-02-22T09:55:54;7.33;;;4.53;;
7833;SDS011;3962;42.696;23.354;2023-02-22T09:58:27;5.80;;;4.03;;
7833;SDS011;3962;42.696;23.354;2023-02-22T10:01:03;5.87;;;4.10;;
7833;SDS011;3962;42.696;23.354;2023-02-22T10:03:46;7.17;;;3.83;;
7833;SDS011;3962;42.696;23.354;2023-02-22T10:06:18;9.17;;;3.47;;
7833;SDS011;3962;42.696;23.354;2023-02-22T10:08:48;7.10;;;3.13;;
7833;SDS011;3962;42.696;23.354;2023-02-22T10:11:34;7.00;;;4.53;;
7833;SDS011;3962;42.696;23.354;2023-02-22T10:14:25;9.83;;;4.30;;
7833;SDS011;3962;42.696;23.354;2023-02-22T10:17:03;4.90;;;3.20;;
7833;SDS011;3962;42.696;23.354;2023-02-22T10:19:36;9.13;;;5.07;;
7833;SDS011;3962;42.696;23.354;2023-02-22T10:22:29;5.17;;;3.20;;
7833;SDS011;3962;42.696;23.354;2023-02-22T10:25:07;5.07;;;3.60;;
7833;SDS011;3962;42.696;23.354;2023-02-22T10:27:38;9.03;;;3.93;;
7833;SDS011;3962;42.696;23.354;2023-02-22T10:30:13;6.20;;;4.30;;
7833;SDS011;3962;42.696;23.354;2023-02-22T10:32:46;7.80;;;4.60;;
7833;SDS011;3962;42.696;23.354;2023-02-22T10:35:19;11.60;;;4.67;;
7833;SDS011;3962;42.696;23.354;2023-02-22T10:37:51;7.77;;;4.80;;
7833;SDS011;3962;42.696;23.354;2023-02-22T10:40:21;10.73;;;4.77;;
7833;SDS011;3962;42.696;23.354;2023-02-22T10:42:56;7.33;;;4.20;;
7833;SDS011;3962;42.696;23.354;2023-02-22T10:45:27;5.87;;;3.90;;
7833;SDS011;3962;42.696;23.354;2023-02-22T10:47:57;5.33;;;3.70;;
7833;SDS011;3962;42.696;23.354;2023-02-22T10:50:32;5.37;;;3.40;;
7833;SDS011;3962;42.696;23.354;2023-02-22T10:53:05;6.10;;;3.73;;
7833;SDS011;3962;42.696;23.354;2023-02-22T10:55:32;9.70;;;4.10;;
7833;SDS011;3962;42.696;23.354;2023-02-22T10:58:00;7.00;;;3.70;;
7833;SDS011;3962;42.696;23.354;2023-02-22T11:00:32;5.77;;;3.90;;
7833;SDS011;3962;42.696;23.354;2023-02-22T11:03:02;12.37;;;4.40;;
7833;SDS011;3962;42.696;23.354;2023-02-22T11:05:40;4.97;;;3.50;;
7833;SDS011;3962;42.696;23.354;2023-02-22T11:08:21;8.93;;;4.53;;
7833;SDS011;3962;42.696;23.354;2023-02-22T11:10:52;10.13;;;4.80;;
7833;SDS011;3962;42.696;23.354;2023-02-22T11:13:26;6.80;;;3.90;;
7833;SDS011;3962;42.696;23.354;2023-02-22T11:15:57;5.77;;;3.90;;
7833;SDS011;3962;42.696;23.354;2023-02-22T11:18:27;7.00;;;3.93;;
7833;SDS011;3962;42.696;23.354;2023-02-22T11:21:02;6.80;;;4.10;;
7833;SDS011;3962;42.696;23.354;2023-02-22T11:23:33;6.97;;;4.23;;
7833;SDS011;3962;42.696;23.354;2023-02-22T11:26:06;9.27;;;4.20;;
7833;SDS011;3962;42.696;23.354;2023-02-22T11:28:34;5.67;;;3.73;;
7833;SDS011;3962;42.696;23.354;2023-02-22T11:31:14;7.43;;;4.03;;
7833;SDS011;3962;42.696;23.354;2023-02-22T11:33:48;5.90;;;3.60;;
7833;SDS011;3962;42.696;23.354;2023-02-22T11:36:30;8.20;;;3.53;;
7833;SDS011;3962;42.696;23.354;2023-02-22T11:39:03;11.30;;;3.90;;
7833;SDS011;3962;42.696;23.354;2023-02-22T11:41:36;6.57;;;3.60;;
7833;SDS011;3962;42.696;23.354;2023-02-22T11:44:13;7.30;;;3.60;;
7833;SDS011;3962;42.696;23.354;2023-02-22T11:46:49;6.60;;;3.60;;
7833;SDS011;3962;42.696;23.354;2023-02-22T11:49:20;5.93;;;3.93;;
7833;SDS011;3962;42.696;23.354;2023-02-22T11:51:52;5.03;;;3.43;;
7833;SDS011;3962;42.696;23.354;2023-02-22T11:54:36;7.43;;;4.40;;
7833;SDS011;3962;42.696;23.354;2023-02-22T11:57:26;6.60;;;3.43;;
7833;SDS011;3962;42.696;23.354;2023-02-22T12:00:11;6.50;;;3.30;;
7833;SDS011;3962;42.696;23.354;2023-02-22T12:02:54;10.33;;;4.13;;
7833;SDS011;3962;42.696;23.354;2023-02-22T12:05:57;5.73;;;3.30;;
7833;SDS011;3962;42.696;23.354;2023-02-22T12:08:36;4.70;;;3.63;;
7833;SDS011;3962;42.696;23.354;2023-02-22T12:11:15;4.17;;;2.80;;
7833;SDS011;3962;42.696;23.354;2023-02-22T12:13:52;4.97;;;3.13;;
7833;SDS011;3962;42.696;23.354;2023-02-22T12:16:34;7.00;;;3.67;;
7833;SDS011;3962;42.696;23.354;2023-02-22T12:19:14;5.13;;;3.20;;
7833;SDS011;3962;42.696;23.354;2023-02-22T12:21:51;6.47;;;3.97;;
7833;SDS011;3962;42.696;23.354;2023-02-22T12:24:23;8.07;;;3.30;;
7833;SDS011;3962;42.696;23.354;2023-02-22T12:26:58;4.37;;;3.33;;
7833;SDS011;3962;42.696;23.354;2023-02-22T12:29:29;3.13;;;2.30;;
7833;SDS011;3962;42.696;23.354;2023-02-22T12:32:04;4.10;;;2.57;;
7833;SDS011;3962;42.696;23.354;2023-02-22T12:34:36;4.03;;;2.33;;
7833;SDS011;3962;42.696;23.354;2023-02-22T12:37:09;4.77;;;2.80;;
7833;SDS011;3962;42.696;23.354;2023-02-22T12:39:45;4.80;;;3.03;;
7833;SDS011;3962;42.696;23.354;2023-02-22T12:42:21;6.57;;;3.30;;
7833;SDS011;3962;42.696;23.354;2023-02-22T12:44:55;5.37;;;2.70;;
7833;SDS011;3962;42.696;23.354;2023-02-22T12:47:28;3.07;;;2.50;;
7833;SDS011;3962;42.696;23.354;2023-02-22T12:50:02;3.47;;;2.90;;
7833;SDS011;3962;42.696;23.354;2023-02-22T12:52:39;6.07;;;2.67;;
7833;SDS011;3962;42.696;23.354;2023-02-22T12:55:11;3.57;;;2.57;;
7833;SDS011;3962;42.696;23.354;2023-02-22T12:57:46;3.90;;;2.60;;
7833;SDS011;3962;42.696;23.354;2023-02-22T13:00:18;3.57;;;2.70;;
7833;SDS011;3962;42.696;23.354;2023-02-22T13:02:54;3.90;;;2.60;;
7833;SDS011;3962;42.696;23.354;2023-02-22T13:05:24;6.97;;;2.80;;
7833;SDS011;3962;42.696;23.354;2023-02-22T13:07:58;4.60;;;2.73;;
7833;SDS011;3962;42.696;23.354;2023-02-22T13:10:43;4.60;;;2.63;;
7833;SDS011;3962;42.696;23.354;2023-02-22T13:13:26;9.00;;;3.20;;
7833;SDS011;3962;42.696;23.354;2023-02-22T13:16:02;4.27;;;2.83;;
7833;SDS011;3962;42.696;23.354;2023-02-22T13:18:41;8.87;;;2.70;;
7833;SDS011;3962;42.696;23.354;2023-02-22T13:21:15;5.43;;;3.00;;
7833;SDS011;3962;42.696;23.354;2023-02-22T13:23:50;7.00;;;3.10;;
7833;SDS011;3962;42.696;23.354;2023-02-22T13:26:30;3.80;;;2.90;;
7833;SDS011;3962;42.696;23.354;2023-02-22T13:29:06;5.40;;;3.40;;
7833;SDS011;3962;42.696;23.354;2023-02-22T13:38:00;8.27;;;3.00;;
7833;SDS011;3962;42.696;23.354;2023-02-22T13:41:04;7.33;;;2.70;;
7833;SDS011;3962;42.696;23.354;2023-02-22T13:43:58;4.37;;;2.77;;
7833;SDS011;3962;42.696;23.354;2023-02-22T13:46:49;7.57;;;3.00;;
7833;SDS011;3962;42.696;23.354;2023-02-22T13:49:39;3.10;;;2.53;;
7833;SDS011;3962;42.696;23.354;2023-02-22T13:52:16;8.03;;;4.70;;
7833;SDS011;3962;42.696;23.354;2023-02-22T13:54:47;5.63;;;3.40;;
7833;SDS011;3962;42.696;23.354;2023-02-22T13:57:20;8.63;;;3.47;;
7833;SDS011;3962;42.696;23.354;2023-02-22T14:05:52;4.60;;;2.90;;
7833;SDS011;3962;42.696;23.354;2023-02-22T14:08:40;4.80;;;2.80;;
7833;SDS011;3962;42.696;23.354;2023-02-22T14:14:18;4.33;;;2.73;;
7833;SDS011;3962;42.696;23.354;2023-02-22T14:19:59;7.70;;;3.73;;
7833;SDS011;3962;42.696;23.354;2023-02-22T14:22:40;6.43;;;3.50;;
7833;SDS011;3962;42.696;23.354;2023-02-22T14:28:05;5.67;;;4.13;;
7833;SDS011;3962;42.696;23.354;2023-02-22T14:30:34;5.57;;;3.30;;
7833;SDS011;3962;42.696;23.354;2023-02-22T14:36:04;10.57;;;3.30;;
7833;SDS011;3962;42.696;23.354;2023-02-22T14:38:33;8.83;;;4.10;;
7833;SDS011;3962;42.696;23.354;2023-02-22T14:41:00;6.00;;;3.17;;
7833;SDS011;3962;42.696;23.354;2023-02-22T14:43:28;5.27;;;3.53;;
7833;SDS011;3962;42.696;23.354;2023-02-22T14:45:56;6.63;;;3.30;;
7833;SDS011;3962;42.696;23.354;2023-02-22T14:48:29;3.80;;;3.20;;
7833;SDS011;3962;42.696;23.354;2023-02-22T14:51:04;3.80;;;2.50;;
7833;SDS011;3962;42.696;23.354;2023-02-22T14:53:41;3.40;;;2.60;;
7833;SDS011;3962;42.696;23.354;2023-02-22T14:56:13;6.83;;;2.97;;
7833;SDS011;3962;42.696;23.354;2023-02-22T14:58:45;5.70;;;3.27;;
7833;SDS011;3962;42.696;23.354;2023-02-22T15:01:16;4.70;;;3.33;;
7833;SDS011;3962;42.696;23.354;2023-02-22T15:03:49;5.10;;;3.33;;
7833;SDS011;3962;42.696;23.354;2023-02-22T15:06:23;10.40;;;3.20;;
7833;SDS011;3962;42.696;23.354;2023-02-22T15:09:05;6.03;;;3.67;;
7833;SDS011;3962;42.696;23.354;2023-02-22T15:11:33;6.90;;;3.43;;
7833;SDS011;3962;42.696;23.354;2023-02-22T15:14:00;10.63;;;5.77;;
7833;SDS011;3962;42.696;23.354;2023-02-22T15:16:28;8.00;;;4.53;;
7833;SDS011;3962;42.696;23.354;2023-02-22T15:18:57;7.03;;;4.47;;
7833;SDS011;3962;42.696;23.354;2023-02-22T15:21:26;6.63;;;3.97;;
7833;SDS011;3962;42.696;23.354;2023-02-22T15:23:54;11.23;;;4.27;;
7833;SDS011;3962;42.696;23.354;2023-02-22T15:26:26;7.80;;;4.23;;
7833;SDS011;3962;42.696;23.354;2023-02-22T15:28:59;7.20;;;4.40;;
7833;SDS011;3962;42.696;23.354;2023-02-22T15:31:29;5.50;;;3.77;;
7833;SDS011;3962;42.696;23.354;2023-02-22T15:34:00;11.17;;;4.70;;
7833;SDS011;3962;42.696;23.354;2023-02-22T15:36:35;5.93;;;4.57;;
7833;SDS011;3962;42.696;23.354;2023-02-22T15:39:02;6.87;;;4.77;;
7833;SDS011;3962;42.696;23.354;2023-02-22T15:41:34;12.23;;;5.50;;
7833;SDS011;3962;42.696;23.354;2023-02-22T15:44:03;8.03;;;5.37;;
7833;SDS011;3962;42.696;23.354;2023-02-22T15:46:32;9.07;;;6.20;;
7833;SDS011;3962;42.696;23.354;2023-02-22T15:49:03;11.40;;;6.20;;
7833;SDS011;3962;42.696;23.354;2023-02-22T15:51:43;11.23;;;8.40;;
7833;SDS011;3962;42.696;23.354;2023-02-22T15:54:15;17.13;;;8.77;;
7833;SDS011;3962;42.696;23.354;2023-02-22T15:56:48;14.27;;;8.97;;
7833;SDS011;3962;42.696;23.354;2023-02-22T15:59:19;19.60;;;11.87;;
7833;SDS011;3962;42.696;23.354;2023-02-22T16:01:48;18.43;;;10.10;;
7833;SDS011;3962;42.696;23.354;2023-02-22T16:04:17;17.57;;;9.70;;
7833;SDS011;3962;42.696;23.354;2023-02-22T16:06:46;22.53;;;9.97;;
7833;SDS011;3962;42.696;23.354;2023-02-22T16:09:14;16.57;;;9.50;;
7833;SDS011;3962;42.696;23.354;2023-02-22T16:11:48;14.73;;;9.97;;
7833;SDS011;3962;42.696;23.354;2023-02-22T16:14:24;14.70;;;8.23;;
7833;SDS011;3962;42.696;23.354;2023-02-22T16:19:39;13.77;;;8.93;;
7833;SDS011;3962;42.696;23.354;2023-02-22T16:22:21;16.43;;;8.67;;
7833;SDS011;3962;42.696;23.354;2023-02-22T16:24:51;19.20;;;10.03;;
7833;SDS011;3962;42.696;23.354;2023-02-22T16:27:21;21.50;;;9.97;;
7833;SDS011;3962;42.696;23.354;2023-02-22T16:30:02;17.53;;;8.73;;
7833;SDS011;3962;42.696;23.354;2023-02-22T16:32:33;11.47;;;7.80;;
7833;SDS011;3962;42.696;23.354;2023-02-22T16:35:00;14.53;;;8.00;;
7833;SDS011;3962;42.696;23.354;2023-02-22T16:37:27;15.23;;;8.03;;
7833;SDS011;3962;42.696;23.354;2023-02-22T16:39:54;13.30;;;8.00;;
7833;SDS011;3962;42.696;23.354;2023-02-22T16:42:22;19.67;;;8.80;;
7833;SDS011;3962;42.696;23.354;2023-02-22T16:44:50;23.10;;;9.70;;
7833;SDS011;3962;42.696;23.354;2023-02-22T16:47:18;17.93;;;9.13;;
7833;SDS011;3962;42.696;23.354;2023-02-22T16:49:47;19.50;;;9.40;;